Rogasovci, Slovenia

12:35 PM CET on januar 19, 2019 (GMT +0100)
Gruisla | | Change Station

Viš 912 ft 46.77 °N, 15.98 °E | Updated 2 minutes ago

Pretezno oblacno
Pretezno oblacno
32 °F
Feels Like 32 °F
N
1.6777
Veter Spremenljivo Veter od JZ
Gusts 0.0 mph

Danes
High -- | Low -- °F
--% Chance of Precip.
Yesterday
High -- | Low -- °F
Precip. -- v
Zračni tlak 30.09 v
Vidljivost 6.2 milje
Oblaki Razprseni oblaki 5000 ft
Pretezno oblacno 11000 ft
Občutek zaradi vetra 32 °F
Rosišče 25 °F
Vlažnost 73%
Padavine 0.00 v
Snow Depth Not available.
7:34 AM 4:39 PM
Naraščajoča luna, 96% visible
METAR LJMB 191130Z 07004KT 030V110 9999 SCT050 BKN110 00/M04 Q1019
Zračni tlak 30.09 v
Vidljivost 6.2 milje
Oblaki Razprseni oblaki 5000 ft
Pretezno oblacno 11000 ft
Občutek zaradi vetra 32 °F
Rosišče 25 °F
Vlažnost 73%
Padavine 0.00 v
Snow Depth Not available.
7:34 AM 4:39 PM
Naraščajoča luna, 96% visible
METAR LJMB 191130Z 07004KT 030V110 9999 SCT050 BKN110 00/M04 Q1019

Get Severe Weather Alerts

Thanks for signing up!

Be on the lookout for a verification email in your inbox.

You'll start receiving the daily forecast at 6 AM.

×

10-Day Weather Forecast

×

Almanac

Astronomija

Jan. 19, 2019 Rise Set
Actual Time
Civil Twilight
Nautical Twilight
Astronomical Twilight
Moon
Length Of Visible Light
Dolžina dneva
Tomorrow will be .
, % of the Moon is Illuminated

Današnji ekstremi

Country Highs Country Lows

Community

WunderPhotos

Category 6

Welcome to Category 6. This is the collective home for Weather Underground's featured writeups by Dr. Jeff Masters (right), Bob Henson (left), Chris Burt, and other regular contributors.

Nearby

Air Quality

  Air Quality AQ Index Pollutant
Not available.

Snow Depth

Station Depth Višina

Earthquake Activity

City Distance Mag. Time & Date
Minimum magnitude displayed is 2.5.

Coastal Water Temperatures

Mesto Temperatura

Stations

Nearby Weather Stations

Station Location Temp Občutek zaradi vetra Rosišče Vlažnost Veter Precip. Viš Obnovljeno Type